Time;durP1;ratioP1;P1;durP2;ratioP2;P2;SDS_P1;SDS_P2;PMS_P1;PMS_P2;Temp;Humidity;BMP_temperature;BMP_pressure;BME280_temperature;BME280_humidity;BME280_pressure;Samples;Min_cycle;Max_cycle;Signal;HPM_P1;HPM_P2
2024/01/04 00:01:50;;;;;;;14.27;1.85;;;;;;;9.83;74.16;100123.44;5016280;28;20035;-90
2024/01/04 00:04:16;;;;;;;21.10;2.33;;;;;;;9.80;74.28;100117.34;5015865;28;20044;-92
2024/01/04 00:06:44;;;;;;;9.77;1.27;;;;;;;9.79;74.48;100112.97;5016399;28;20017;-89
2024/01/04 00:09:10;;;;;;;13.73;1.50;;;;;;;9.76;74.10;100122.56;5015829;28;20031;-89
2024/01/04 00:11:36;;;;;;;18.45;1.67;;;;;;;9.76;74.26;100111.19;5016304;28;20088;-91
2024/01/04 00:14:02;;;;;;;11.70;1.53;;;;;;;9.72;74.15;100110.31;5015974;28;20670;-90
2024/01/04 00:16:28;;;;;;;16.92;2.13;;;;;;;9.71;74.44;100113.84;5016284;28;20033;-92
2024/01/04 00:18:53;;;;;;;14.13;1.43;;;;;;;9.71;74.31;100103.31;5016271;28;20030;-89
2024/01/04 00:21:18;;;;;;;14.33;1.93;;;;;;;9.69;74.19;100112.97;5016515;28;20026;-92
2024/01/04 00:23:44;;;;;;;14.97;1.30;;;;;;;9.66;74.54;100102.47;5016980;28;20040;-93
2024/01/04 00:26:09;;;;;;;13.18;1.73;;;;;;;9.65;74.83;100103.34;5034206;28;20033;-95
2024/01/04 00:28:37;;;;;;;12.37;1.50;;;;;;;9.63;74.70;100105.09;5034024;28;20037;-93
2024/01/04 00:34:47;;;;;;;14.00;1.53;;;;;;;9.56;74.83;100119.16;5028334;28;20091;-94
2024/01/04 00:41:21;;;;;;;15.07;1.92;;;;;;;9.52;75.13;100127.91;5035302;28;20048;-94
2024/01/04 00:43:47;;;;;;;14.30;1.95;;;;;;;9.53;75.04;100113.91;5018154;28;20116;-96
2024/01/04 00:50:37;;;;;;;23.17;1.90;;;;;;;9.46;74.66;100103.38;4934804;29;20107;-92
2024/01/04 00:59:03;;;;;;;13.68;1.23;;;;;;;9.38;74.83;100112.16;5530390;23;20117;-91
2024/01/04 01:01:33;;;;;;;22.33;1.97;;;;;;;9.37;75.14;100111.28;4975403;28;20129;-90
2024/01/04 01:03:59;;;;;;;15.48;1.88;;;;;;;9.36;75.34;100116.53;4974970;28;20085;-90
2024/01/04 01:06:25;;;;;;;15.45;1.85;;;;;;;9.32;75.46;100107.81;4975078;28;20034;-90
2024/01/04 01:08:50;;;;;;;9.10;1.77;;;;;;;9.29;75.67;100105.19;4975097;28;20562;-89
2024/01/04 01:11:16;;;;;;;10.63;1.50;;;;;;;9.27;75.35;100106.91;4975244;28;20026;-90
2024/01/04 01:13:42;;;;;;;12.93;1.10;;;;;;;9.26;75.13;100100.78;4992259;28;20030;-91
2024/01/04 01:16:08;;;;;;;13.67;1.50;;;;;;;9.24;75.39;100096.41;4977480;28;20109;-91
2024/01/04 01:18:34;;;;;;;12.77;1.58;;;;;;;9.22;75.12;100098.16;4985023;28;20022;-92
2024/01/04 01:21:00;;;;;;;10.65;1.33;;;;;;;9.17;75.32;100096.44;4992570;28;20030;-91
2024/01/04 01:23:25;;;;;;;11.53;1.77;;;;;;;9.12;75.50;100087.69;4992844;28;20364;-90
2024/01/04 01:25:50;;;;;;;12.10;1.70;;;;;;;9.08;75.60;100091.19;4993210;28;20383;-89
2024/01/04 01:28:16;;;;;;;11.60;1.47;;;;;;;9.04;75.70;100084.16;4977301;28;20031;-89
2024/01/04 01:30:41;;;;;;;12.57;1.40;;;;;;;9.00;75.79;100077.16;4974706;28;20025;-92
2024/01/04 01:33:07;;;;;;;12.43;1.50;;;;;;;8.96;75.96;100084.19;4991452;28;20041;-90
2024/01/04 01:35:32;;;;;;;13.43;1.43;;;;;;;8.93;75.57;100086.81;4993803;28;20025;-89
2024/01/04 01:37:57;;;;;;;17.07;2.07;;;;;;;8.87;75.88;100085.06;4993890;28;20033;-91
2024/01/04 01:40:23;;;;;;;12.20;1.23;;;;;;;8.82;75.90;100083.31;4993994;28;20045;-89
2024/01/04 01:42:49;;;;;;;13.45;1.55;;;;;;;8.79;75.59;100084.16;4993864;28;20037;-90
2024/01/04 01:45:17;;;;;;;9.57;1.50;;;;;;;8.74;75.75;100088.53;4993459;28;20478;-89
2024/01/04 01:47:46;;;;;;;10.48;1.38;;;;;;;8.70;76.06;100087.69;4984844;28;20030;-93
2024/01/04 01:50:11;;;;;;;12.55;1.30;;;;;;;8.66;76.37;100099.03;4975222;28;20030;-90
2024/01/04 01:52:37;;;;;;;10.50;1.53;;;;;;;8.63;76.07;100103.44;4974866;28;20025;-89
2024/01/04 01:55:03;;;;;;;9.20;1.33;;;;;;;8.58;76.16;100101.69;4974250;28;20426;-89
2024/01/04 01:57:32;;;;;;;11.47;1.43;;;;;;;8.56;76.03;100095.56;4974644;28;20077;-89
2024/01/04 01:59:58;;;;;;;9.23;1.35;;;;;;;8.52;75.73;100101.66;4991373;28;20064;-91
2024/01/04 02:02:24;;;;;;;9.43;1.02;;;;;;;8.52;76.14;100106.91;5000312;28;20542;-90
2024/01/04 02:04:49;;;;;;;9.43;1.27;;;;;;;8.54;76.06;100115.66;4980786;28;20058;-90
2024/01/04 02:07:15;;;;;;;10.97;2.53;;;;;;;8.55;75.54;100106.03;4974938;28;20122;-90
2024/01/04 02:09:40;;;;;;;12.43;1.63;;;;;;;8.53;76.08;100098.16;4988234;28;20036;-93
2024/01/04 02:12:10;;;;;;;12.40;1.60;;;;;;;8.53;76.15;100098.16;4996103;28;20486;-92
2024/01/04 02:14:35;;;;;;;15.02;2.08;;;;;;;8.52;75.79;100100.78;4995471;28;20018;-92
2024/01/04 02:17:01;;;;;;;10.53;1.80;;;;;;;8.55;75.94;100103.41;4995833;28;20027;-92
2024/01/04 02:19:27;;;;;;;14.35;1.92;;;;;;;8.52;76.22;100100.78;4977030;28;20035;-94
2024/01/04 02:21:52;;;;;;;15.37;2.40;;;;;;;8.51;76.28;100110.41;4993815;28;20502;-91
2024/01/04 02:24:18;;;;;;;12.05;1.60;;;;;;;8.48;76.21;100102.47;4972561;28;20050;-91
2024/01/04 02:26:46;;;;;;;13.57;1.70;;;;;;;8.46;76.34;100106.84;4972328;28;20035;-91
2024/01/04 02:29:11;;;;;;;14.05;2.28;;;;;;;8.50;76.60;100116.50;4988795;28;20038;-94
2024/01/04 02:31:36;;;;;;;15.23;1.50;;;;;;;8.53;76.32;100111.28;4976349;28;20098;-93
2024/01/04 02:34:02;;;;;;;11.77;2.00;;;;;;;8.56;76.20;100108.69;4976729;28;20121;-94
2024/01/04 02:36:27;;;;;;;15.47;2.20;;;;;;;8.57;75.99;100109.53;4976877;28;20045;-93
2024/01/04 02:38:53;;;;;;;17.47;2.13;;;;;;;8.60;75.92;100106.91;4975845;28;20062;-91
2024/01/04 02:41:18;;;;;;;14.67;2.23;;;;;;;8.60;75.87;100110.44;4973906;28;20274;-88
2024/01/04 02:43:43;;;;;;;14.67;2.17;;;;;;;8.63;76.12;100114.78;4972915;28;20552;-89
2024/01/04 02:46:09;;;;;;;15.27;2.60;;;;;;;8.61;75.79;100114.81;4990104;28;20037;-88
2024/01/04 02:48:34;;;;;;;10.60;1.83;;;;;;;8.60;76.09;100118.31;4990289;28;20026;-89
2024/01/04 02:51:00;;;;;;;14.25;2.40;;;;;;;8.60;76.21;100117.41;4990240;28;20485;-89
2024/01/04 02:53:25;;;;;;;15.03;2.10;;;;;;;8.51;75.99;100114.78;4990474;28;20084;-91
2024/01/04 02:55:50;;;;;;;10.43;1.80;;;;;;;8.40;76.21;100110.34;4973221;28;20368;-90
2024/01/04 02:58:18;;;;;;;15.23;2.00;;;;;;;8.34;76.57;100112.94;4980027;28;20052;-89
2024/01/04 03:00:43;;;;;;;8.43;1.52;;;;;;;8.29;76.68;100105.06;5009699;28;20030;-89
2024/01/04 03:03:08;;;;;;;15.57;1.67;;;;;;;8.28;76.59;100111.19;5013543;28;20044;-89
2024/01/04 03:05:34;;;;;;;13.47;2.00;;;;;;;8.28;76.44;100110.31;5014232;28;20030;-89
2024/01/04 03:07:59;;;;;;;12.82;1.67;;;;;;;8.27;77.02;100106.81;5014131;28;20153;-90
2024/01/04 03:10:24;;;;;;;11.37;1.67;;;;;;;8.25;76.61;100108.56;4996638;28;20470;-89
2024/01/04 03:12:50;;;;;;;11.30;2.40;;;;;;;8.23;76.53;100110.28;5000960;28;20390;-89
2024/01/04 03:15:15;;;;;;;16.23;2.03;;;;;;;8.23;76.85;100112.06;4995376;28;20033;-91
2024/01/04 03:17:41;;;;;;;18.65;2.50;;;;;;;8.20;76.70;100112.91;4995384;28;20486;-89
2024/01/04 03:20:07;;;;;;;10.90;1.53;;;;;;;8.18;76.74;100114.66;4977393;28;20728;-89
2024/01/04 03:22:32;;;;;;;12.57;1.60;;;;;;;8.15;76.92;100122.53;4994331;28;20026;-91
2024/01/04 03:24:58;;;;;;;9.73;1.87;;;;;;;8.13;76.81;100108.53;5003027;28;20025;-89
2024/01/04 03:27:23;;;;;;;14.50;1.93;;;;;;;8.10;76.88;100103.28;4976755;28;20620;-88
2024/01/04 03:29:50;;;;;;;10.13;1.37;;;;;;;8.11;77.03;100090.16;4991942;28;20019;-89
2024/01/04 03:32:15;;;;;;;17.10;1.98;;;;;;;8.12;76.40;100080.56;4978370;28;20394;-93
2024/01/04 03:34:41;;;;;;;13.27;1.60;;;;;;;8.10;76.72;100082.31;4978733;28;20129;-92
2024/01/04 03:37:07;;;;;;;8.87;1.37;;;;;;;8.10;76.55;100077.06;4978314;28;20019;-90
2024/01/04 03:39:32;;;;;;;14.73;1.63;;;;;;;8.10;76.96;100077.06;4976843;28;20077;-89
2024/01/04 03:41:57;;;;;;;16.33;1.50;;;;;;;8.09;76.89;100067.44;4995143;28;20109;-89
2024/01/04 03:44:23;;;;;;;12.33;1.50;;;;;;;8.03;76.75;100056.03;4977555;28;20429;-91
2024/01/04 03:46:48;;;;;;;14.30;1.53;;;;;;;8.02;76.85;100046.41;4977196;28;20026;-89
2024/01/04 03:49:14;;;;;;;10.75;1.63;;;;;;;8.00;76.79;100047.28;4993947;28;20479;-89
2024/01/04 03:51:39;;;;;;;13.30;1.80;;;;;;;7.96;76.48;100041.16;4992274;28;20045;-89
2024/01/04 03:54:05;;;;;;;11.23;1.80;;;;;;;7.90;76.88;100039.38;4993990;28;20038;-90
2024/01/04 03:56:30;;;;;;;11.23;1.83;;;;;;;7.88;76.81;100024.53;4993272;28;20062;-92
2024/01/04 03:58:55;;;;;;;9.93;1.47;;;;;;;7.83;76.70;100023.63;4976923;28;20042;-88
2024/01/04 04:01:21;;;;;;;10.45;1.60;;;;;;;7.82;77.11;100019.25;4994657;28;20109;-89
2024/01/04 04:03:47;;;;;;;13.33;1.70;;;;;;;7.72;76.74;100016.63;4994280;28;20041;-89
2024/01/04 04:06:12;;;;;;;11.82;1.80;;;;;;;7.63;76.82;100011.34;4977013;28;20031;-91
2024/01/04 04:08:39;;;;;;;12.53;1.40;;;;;;;7.57;77.04;100012.19;4982760;28;20045;-89
2024/01/04 04:11:14;;;;;;;13.93;1.42;;;;;;;7.55;76.53;100005.19;4992821;28;20438;-90
2024/01/04 04:13:40;;;;;;;10.27;1.40;;;;;;;7.52;77.13;100010.41;4992399;28;20050;-91
2024/01/04 04:16:05;;;;;;;14.90;2.50;;;;;;;7.45;77.20;100010.41;4993495;28;20030;-91
2024/01/04 04:18:30;;;;;;;11.77;1.50;;;;;;;7.41;76.88;100013.88;4987648;28;20173;-90
2024/01/04 04:20:56;;;;;;;11.13;1.43;;;;;;;7.39;76.78;100017.34;4976001;28;20037;-88
2024/01/04 04:23:21;;;;;;;11.30;1.60;;;;;;;7.36;77.09;99999.88;4975828;28;20034;-89
2024/01/04 04:25:47;;;;;;;11.10;1.57;;;;;;;7.36;77.05;100005.13;5009342;28;20112;-88
2024/01/04 04:28:13;;;;;;;13.87;1.73;;;;;;;7.34;76.92;100006.81;5005347;28;20281;-89
2024/01/04 04:30:38;;;;;;;9.88;1.63;;;;;;;7.32;76.68;99998.97;4993069;28;20033;-89
2024/01/04 04:33:04;;;;;;;12.00;1.77;;;;;;;7.29;77.13;100004.22;4975436;28;20026;-89
2024/01/04 04:35:29;;;;;;;13.13;1.60;;;;;;;7.27;76.81;100003.31;4992203;28;20049;-87
2024/01/04 04:37:55;;;;;;;11.27;1.70;;;;;;;7.25;76.83;100001.56;4974833;28;20085;-89
2024/01/04 04:40:20;;;;;;;11.32;1.70;;;;;;;7.23;77.05;100000.69;4992284;28;20039;-88
2024/01/04 04:42:46;;;;;;;8.60;2.10;;;;;;;7.18;76.54;99996.28;4992999;28;20069;-91
2024/01/04 04:45:11;;;;;;;13.57;1.77;;;;;;;7.15;76.63;99993.66;4975782;28;20088;-91
2024/01/04 04:47:37;;;;;;;9.88;1.83;;;;;;;7.12;77.19;99985.78;4993443;28;20046;-93
2024/01/04 04:50:04;;;;;;;13.27;1.70;;;;;;;7.07;76.83;99982.25;4976259;28;20057;-90
2024/01/04 04:52:29;;;;;;;8.40;1.63;;;;;;;7.02;77.05;99984.88;4993250;28;20030;-91
2024/01/04 04:54:55;;;;;;;9.20;1.70;;;;;;;6.99;76.95;99990.09;4992750;28;20426;-89
2024/01/04 04:57:21;;;;;;;12.70;1.95;;;;;;;6.94;76.89;99989.16;4976015;28;20027;-89
2024/01/04 04:59:47;;;;;;;10.57;1.60;;;;;;;6.90;76.67;99990.00;5011970;28;20133;-89
2024/01/04 05:02:12;;;;;;;9.32;1.50;;;;;;;6.86;77.23;99989.09;4994654;28;20382;-89
2024/01/04 05:04:38;;;;;;;11.20;1.87;;;;;;;6.83;77.27;99980.38;5004263;28;20037;-88
2024/01/04 05:07:04;;;;;;;10.35;1.73;;;;;;;6.81;77.42;99982.09;4991622;28;20030;-91
2024/01/04 05:09:29;;;;;;;9.17;1.53;;;;;;;6.79;77.17;99983.84;4991515;28;20034;-89
2024/01/04 05:11:55;;;;;;;12.45;2.13;;;;;;;6.77;77.00;99973.34;4991555;28;20117;-92
2024/01/04 05:14:20;;;;;;;15.23;2.50;;;;;;;6.72;76.72;99962.84;4990801;28;20121;-88
2024/01/04 05:16:46;;;;;;;12.70;3.10;;;;;;;6.67;77.16;99969.78;4996920;28;20075;-89
2024/01/04 05:19:12;;;;;;;12.13;3.10;;;;;;;6.65;76.69;99973.28;4996953;28;20533;-90
2024/01/04 05:21:40;;;;;;;11.93;2.43;;;;;;;6.64;77.25;99971.53;4975985;28;20379;-93
2024/01/04 05:24:06;;;;;;;13.70;2.85;;;;;;;6.61;76.95;99961.91;4978119;28;20026;-87
2024/01/04 05:26:32;;;;;;;12.63;4.10;;;;;;;6.58;76.63;99961.88;4978985;28;20045;-88
2024/01/04 05:28:58;;;;;;;17.27;3.97;;;;;;;6.54;77.27;99960.97;4992340;28;20570;-88
2024/01/04 05:31:25;;;;;;;13.50;3.30;;;;;;;6.49;76.92;99960.06;4974179;28;20097;-88
2024/01/04 05:33:50;;;;;;;12.57;3.03;;;;;;;6.43;77.33;99960.88;4962121;28;20034;-88
2024/01/04 05:36:18;;;;;;;17.37;3.30;;;;;;;6.41;77.28;99964.38;4973235;28;20042;-88
2024/01/04 05:38:44;;;;;;;11.98;2.70;;;;;;;6.38;76.75;99961.72;4992128;28;20038;-88
2024/01/04 05:41:10;;;;;;;15.13;3.43;;;;;;;6.35;76.87;99954.72;4974237;28;20114;-89
2024/01/04 05:43:35;;;;;;;10.95;2.03;;;;;;;6.31;76.62;99961.66;4974000;28;20084;-88
2024/01/04 05:46:04;;;;;;;9.37;2.30;;;;;;;6.26;76.56;99954.63;4974000;28;20041;-89
2024/01/04 05:48:30;;;;;;;8.68;2.13;;;;;;;6.22;77.03;99952.88;4973596;28;20077;-89
2024/01/04 05:50:56;;;;;;;10.18;2.63;;;;;;;6.20;76.41;99954.59;4974117;28;20077;-88
2024/01/04 05:53:21;;;;;;;8.60;2.40;;;;;;;6.16;76.81;99948.47;4974746;28;20027;-92
2024/01/04 05:55:47;;;;;;;13.70;2.60;;;;;;;6.12;76.79;99954.53;4976218;28;20034;-90
2024/01/04 05:58:12;;;;;;;11.23;2.20;;;;;;;6.08;77.14;99951.03;4974562;28;20154;-89
2024/01/04 06:00:38;;;;;;;11.17;2.23;;;;;;;6.03;76.63;99952.72;4974782;28;20137;-91
2024/01/04 06:03:04;;;;;;;16.63;3.40;;;;;;;6.01;76.69;99951.81;4973852;28;20023;-87
2024/01/04 06:05:29;;;;;;;17.10;3.33;;;;;;;5.97;76.70;99952.59;4990813;28;20035;-89
2024/01/04 06:07:55;;;;;;;10.82;2.78;;;;;;;5.92;76.97;99949.09;4973672;28;20122;-89
2024/01/04 06:10:20;;;;;;;12.10;3.00;;;;;;;5.88;77.03;99949.06;4991710;28;20029;-87
2024/01/04 06:12:45;;;;;;;15.63;3.40;;;;;;;5.86;77.12;99944.66;4973938;28;20030;-91
2024/01/04 06:15:11;;;;;;;12.73;2.70;;;;;;;5.85;76.88;99945.53;4973374;28;20064;-91
2024/01/04 06:17:36;;;;;;;14.37;2.73;;;;;;;5.83;76.72;99940.31;4973558;28;20385;-89
2024/01/04 06:20:02;;;;;;;12.88;2.72;;;;;;;5.78;77.08;99946.34;4973809;28;20022;-90
2024/01/04 06:22:28;;;;;;;10.33;2.40;;;;;;;5.74;77.10;99951.53;4973433;28;20085;-90
2024/01/04 06:24:53;;;;;;;13.02;2.65;;;;;;;5.74;76.70;99948.91;4991450;28;20022;-94
2024/01/04 06:27:19;;;;;;;10.00;2.40;;;;;;;5.72;77.02;99950.63;4992471;28;20105;-90
2024/01/04 06:29:44;;;;;;;12.20;2.80;;;;;;;5.70;76.63;99948.84;4991797;28;20040;-92
2024/01/04 06:32:10;;;;;;;14.60;3.33;;;;;;;5.68;77.26;99938.41;5014859;28;20063;-86
2024/01/04 06:34:35;;;;;;;12.37;3.27;;;;;;;5.66;77.18;99942.72;4993026;28;20053;-91
2024/01/04 06:37:01;;;;;;;10.10;2.60;;;;;;;5.64;76.70;99936.59;5010432;28;20030;-90
2024/01/04 06:39:28;;;;;;;8.00;2.35;;;;;;;5.62;76.94;99929.63;4993670;28;20033;-91
2024/01/04 06:41:53;;;;;;;13.60;2.90;;;;;;;5.59;77.00;99935.69;4992526;28;20066;-90
2024/01/04 06:44:19;;;;;;;11.25;2.60;;;;;;;5.57;76.54;99929.56;4992239;28;20060;-89
2024/01/04 06:46:44;;;;;;;13.27;3.00;;;;;;;5.55;76.62;99926.06;4992837;28;20038;-90
2024/01/04 06:49:09;;;;;;;11.00;2.63;;;;;;;5.52;76.55;99923.41;4992447;28;20029;-89
2024/01/04 06:51:35;;;;;;;10.93;2.95;;;;;;;5.48;76.94;99917.28;5010031;28;20021;-89
2024/01/04 06:54:00;;;;;;;8.97;2.93;;;;;;;5.45;76.37;99915.53;4992290;28;20501;-88
2024/01/04 06:56:26;;;;;;;9.17;2.80;;;;;;;5.43;76.42;99911.13;4990122;28;20030;-88
2024/01/04 06:58:52;;;;;;;17.07;4.10;;;;;;;5.43;77.03;99909.41;4982905;28;20078;-89
2024/01/04 07:01:19;;;;;;;11.50;4.00;;;;;;;5.41;77.02;99913.72;4990279;28;20037;-91
2024/01/04 07:03:46;;;;;;;16.90;4.03;;;;;;;5.37;76.75;99911.94;4973023;28;20030;-89
2024/01/04 07:06:12;;;;;;;13.43;3.85;;;;;;;5.34;76.43;99904.06;4990643;28;20034;-90
2024/01/04 07:08:37;;;;;;;12.30;3.87;;;;;;;5.31;76.55;99902.31;4972027;28;20043;-90
2024/01/04 07:11:05;;;;;;;11.45;3.30;;;;;;;5.29;76.83;99908.38;4972031;28;20106;-90
2024/01/04 07:13:30;;;;;;;15.07;3.57;;;;;;;5.27;77.11;99902.25;4990704;28;20054;-89
2024/01/04 07:15:55;;;;;;;13.07;3.88;;;;;;;5.25;76.80;99910.06;4973582;28;20065;-88
2024/01/04 07:18:21;;;;;;;14.13;3.97;;;;;;;5.26;76.70;99900.50;5004219;28;20042;-89
2024/01/04 07:20:46;;;;;;;15.10;3.40;;;;;;;5.27;77.01;99907.47;4978852;28;20047;-89
2024/01/04 07:23:12;;;;;;;12.13;3.23;;;;;;;5.27;76.73;99907.47;4992690;28;20113;-89
2024/01/04 07:25:37;;;;;;;12.40;2.83;;;;;;;5.26;77.03;99895.28;4998348;28;20049;-88
2024/01/04 07:28:03;;;;;;;13.43;3.40;;;;;;;5.25;76.68;99894.38;4982673;28;20502;-87
2024/01/04 07:30:29;;;;;;;16.67;4.00;;;;;;;5.27;76.64;99891.81;4996965;28;20102;-90
2024/01/04 07:32:54;;;;;;;19.00;4.27;;;;;;;5.28;76.77;99880.50;4994682;28;20073;-92
2024/01/04 07:35:23;;;;;;;12.63;3.10;;;;;;;5.29;76.44;99885.72;4982313;28;20506;-87
2024/01/04 07:37:48;;;;;;;13.77;3.08;;;;;;;5.33;76.91;99876.19;4989103;28;20037;-90
2024/01/04 07:40:14;;;;;;;12.10;3.07;;;;;;;5.35;77.24;99874.47;4970726;28;20406;-88
2024/01/04 07:42:40;;;;;;;12.23;2.95;;;;;;;5.36;76.49;99875.38;4972402;28;20406;-91
2024/01/04 07:45:05;;;;;;;7.33;2.70;;;;;;;5.37;76.95;99874.50;4997707;28;20187;-89
2024/01/04 07:47:31;;;;;;;20.95;3.00;;;;;;;5.37;77.02;99877.13;4990916;28;20463;-91
2024/01/04 07:49:56;;;;;;;12.77;3.00;;;;;;;5.36;76.77;99871.00;4992958;28;20113;-89
2024/01/04 07:52:22;;;;;;;13.60;3.20;;;;;;;5.37;76.87;99862.31;5001274;28;20112;-90
2024/01/04 07:54:47;;;;;;;12.33;3.23;;;;;;;5.39;77.37;99864.97;5003105;28;20198;-89
2024/01/04 07:57:13;;;;;;;15.18;3.05;;;;;;;5.42;76.91;99860.63;4981004;28;20022;-85
2024/01/04 07:59:39;;;;;;;11.80;2.60;;;;;;;5.49;76.93;99856.34;5001038;28;20121;-88
2024/01/04 08:02:05;;;;;;;13.50;2.70;;;;;;;5.61;76.81;99850.38;4978873;28;20085;-93
2024/01/04 08:04:30;;;;;;;13.43;2.77;;;;;;;5.72;76.71;99848.75;4992519;28;20565;-88
2024/01/04 08:06:57;;;;;;;13.02;2.70;;;;;;;5.84;76.58;99847.09;4976664;28;20030;-88
2024/01/04 08:09:23;;;;;;;10.53;2.77;;;;;;;6.01;76.18;99842.91;4976089;28;20107;-92
2024/01/04 08:11:48;;;;;;;10.68;2.92;;;;;;;6.17;75.91;99845.66;4989261;28;20636;-90
2024/01/04 08:14:14;;;;;;;14.73;2.93;;;;;;;6.35;75.92;99844.00;4995255;28;20030;-89
2024/01/04 08:16:39;;;;;;;17.30;3.03;;;;;;;6.48;75.19;99843.22;5013301;28;20025;-93
2024/01/04 08:19:07;;;;;;;16.40;3.10;;;;;;;6.63;74.66;99838.94;4999843;28;20019;-90
2024/01/04 08:21:35;;;;;;;10.82;2.83;;;;;;;6.77;74.86;99839.88;4993542;28;20069;-93
2024/01/04 08:24:00;;;;;;;13.35;3.65;;;;;;;6.92;74.73;99846.06;4978026;28;20037;-91
2024/01/04 08:26:27;;;;;;;9.77;3.63;;;;;;;7.05;74.18;99834.75;4982143;28;20026;-85
2024/01/04 08:28:52;;;;;;;13.43;3.03;;;;;;;7.21;74.42;99819.94;4991660;28;20023;-83
2024/01/04 08:31:18;;;;;;;18.50;4.80;;;;;;;7.37;73.94;99818.28;4992727;28;20036;-87
2024/01/04 08:33:43;;;;;;;12.38;3.33;;;;;;;7.53;73.87;99815.66;4992278;28;20026;-88
2024/01/04 08:36:08;;;;;;;14.80;3.83;;;;;;;7.65;73.22;99817.41;4992470;28;20027;-93
2024/01/04 08:38:34;;;;;;;11.37;3.03;;;;;;;7.76;73.43;99813.91;4992639;28;20022;-87
2024/01/04 08:41:00;;;;;;;17.13;3.00;;;;;;;7.88;73.45;99809.56;4992400;28;20534;-91
2024/01/04 08:43:25;;;;;;;16.33;4.68;;;;;;;7.96;73.42;99812.19;4992456;28;20038;-94
2024/01/04 08:45:51;;;;;;;11.77;3.10;;;;;;;8.02;73.37;99813.03;4974611;28;20046;-89
2024/01/04 08:48:16;;;;;;;12.57;3.10;;;;;;;8.05;73.24;99818.28;4978629;28;20056;-88
2024/01/04 08:50:42;;;;;;;10.50;2.43;;;;;;;8.13;73.44;99817.41;4992590;28;20661;-88
2024/01/04 08:53:07;;;;;;;8.07;2.17;;;;;;;8.20;73.27;99811.28;4991333;28;20458;-90
2024/01/04 08:55:33;;;;;;;13.03;2.17;;;;;;;8.20;72.86;99816.50;4991704;28;20034;-87
2024/01/04 08:57:59;;;;;;;10.07;2.55;;;;;;;8.22;72.64;99799.03;4973862;28;20598;-86
2024/01/04 09:00:24;;;;;;;11.57;2.10;;;;;;;8.28;73.24;99808.63;4991292;28;20054;-83
2024/01/04 09:02:50;;;;;;;8.85;2.13;;;;;;;8.38;73.11;99799.84;4974041;28;20034;-87
2024/01/04 09:05:15;;;;;;;8.03;1.97;;;;;;;8.41;72.74;99801.59;4974236;28;20081;-87
2024/01/04 09:07:41;;;;;;;15.87;2.10;;;;;;;8.50;72.91;99793.72;4991859;28;20522;-86
2024/01/04 09:10:07;;;;;;;10.93;2.53;;;;;;;8.65;72.75;99794.56;4974038;28;20030;-85
2024/01/04 09:12:33;;;;;;;10.50;2.20;;;;;;;8.79;72.97;99790.13;4991452;28;20041;-85
2024/01/04 09:14:58;;;;;;;14.40;2.40;;;;;;;8.94;72.59;99785.69;4990981;28;20027;-86
2024/01/04 09:17:25;;;;;;;12.40;2.77;;;;;;;9.05;72.44;99778.63;4997514;28;20034;-85
2024/01/04 09:19:51;;;;;;;11.88;2.13;;;;;;;9.11;72.15;99783.84;4991281;28;20089;-84
2024/01/04 09:22:16;;;;;;;14.67;2.73;;;;;;;9.13;72.44;99784.72;4991272;28;20406;-85
2024/01/04 09:24:42;;;;;;;9.93;2.10;;;;;;;9.13;72.57;99786.44;4999220;28;20034;-84
2024/01/04 09:27:07;;;;;;;9.53;1.90;;;;;;;9.17;72.47;99786.44;4992978;28;20659;-87
2024/01/04 09:29:33;;;;;;;10.53;2.50;;;;;;;9.17;72.50;99786.44;4990970;28;20041;-84
2024/01/04 09:31:58;;;;;;;10.93;2.23;;;;;;;9.13;71.96;99782.06;4991324;28;20546;-86
2024/01/04 09:34:24;;;;;;;10.48;2.15;;;;;;;9.09;72.73;99769.84;4991228;28;20029;-89
2024/01/04 09:36:50;;;;;;;13.23;2.57;;;;;;;9.06;72.48;99767.25;4973650;28;20038;-90
2024/01/04 09:39:17;;;;;;;16.75;2.30;;;;;;;9.04;72.58;99766.34;4991455;28;20026;-93
2024/01/04 09:41:46;;;;;;;12.02;2.63;;;;;;;9.04;72.63;99764.63;4990839;28;20038;-86
2024/01/04 09:44:13;;;;;;;12.57;2.20;;;;;;;9.10;72.33;99758.47;4991018;28;20038;-86
2024/01/04 09:46:39;;;;;;;10.13;2.13;;;;;;;9.27;72.82;99760.97;4998277;28;20462;-86
2024/01/04 09:49:07;;;;;;;10.52;2.38;;;;;;;9.44;72.74;99758.22;4993125;28;20054;-86
2024/01/04 09:51:34;;;;;;;13.18;2.42;;;;;;;9.63;72.30;99763.34;5010301;28;20026;-84
2024/01/04 09:54:03;;;;;;;12.52;2.58;;;;;;;9.77;72.06;99750.94;4985022;28;20093;-83
2024/01/04 09:56:30;;;;;;;13.87;2.60;;;;;;;9.94;72.10;99752.53;4991042;28;20568;-82
2024/01/04 09:58:55;;;;;;;10.88;2.50;;;;;;;10.08;72.20;99749.75;4995028;28;20100;-86
2024/01/04 10:01:30;;;;;;;15.52;3.03;;;;;;;10.15;71.16;99747.94;5010646;28;20034;-79
2024/01/04 10:04:03;;;;;;;12.13;2.88;;;;;;;10.28;71.08;99746.03;5011217;28;20026;-80
2024/01/04 10:06:35;;;;;;;11.90;2.67;;;;;;;10.42;70.98;99746.81;5011360;28;20042;-93
2024/01/04 10:09:26;;;;;;;14.07;2.97;;;;;;;10.65;70.55;99736.84;4988509;28;20112;-88
2024/01/04 10:11:58;;;;;;;10.77;2.40;;;;;;;10.79;70.80;99732.28;4992965;28;20030;-79
2024/01/04 10:14:25;;;;;;;16.27;3.20;;;;;;;10.97;70.37;99720.63;4997998;28;20035;-86
2024/01/04 10:16:51;;;;;;;26.33;6.85;;;;;;;11.11;70.41;99701.97;4978996;28;20143;-80
2024/01/04 10:19:17;;;;;;;15.23;2.90;;;;;;;11.25;70.91;99698.25;4993753;28;20125;-80
2024/01/04 10:21:42;;;;;;;12.65;2.20;;;;;;;11.38;70.42;99688.38;4990434;28;20534;-80
2024/01/04 10:24:10;;;;;;;12.60;2.53;;;;;;;11.52;70.47;99680.25;4976594;28;20080;-81
2024/01/04 10:26:35;;;;;;;12.48;3.92;;;;;;;11.65;70.39;99675.63;4997043;28;20030;-80
2024/01/04 10:29:01;;;;;;;11.30;3.60;;;;;;;11.84;70.37;99665.59;4983652;28;20033;-82
2024/01/04 10:31:27;;;;;;;11.05;3.53;;;;;;;12.03;69.81;99660.84;5011778;28;20100;-92
2024/01/04 10:33:57;;;;;;;14.07;3.07;;;;;;;12.31;69.55;99650.59;4993930;28;20133;-93
2024/01/04 10:36:23;;;;;;;14.73;2.30;;;;;;;12.48;69.26;99649.38;5012139;28;20056;-88
2024/01/04 10:38:49;;;;;;;14.85;1.83;;;;;;;12.51;68.94;99646.66;5012761;28;20034;-89
2024/01/04 10:41:17;;;;;;;13.57;1.80;;;;;;;12.49;68.91;99632.63;5011086;28;20022;-83
2024/01/04 10:43:43;;;;;;;10.82;2.13;;;;;;;12.63;69.00;99632.31;4990336;28;20022;-90
2024/01/04 10:46:10;;;;;;;12.70;1.83;;;;;;;12.72;69.13;99633.88;4990433;28;20038;-84
2024/01/04 10:48:36;;;;;;;10.50;1.63;;;;;;;12.85;68.92;99618.59;4990509;28;20045;-87
2024/01/04 10:51:08;;;;;;;18.90;3.05;;;;;;;13.00;68.35;99612.06;4990809;28;20026;-89
2024/01/04 10:53:38;;;;;;;12.73;3.55;;;;;;;13.03;67.29;99604.06;4990824;28;20030;-81
2024/01/04 10:56:04;;;;;;;16.85;2.40;;;;;;;13.13;67.84;99602.91;4990189;28;20074;-79
2024/01/04 10:58:35;;;;;;;20.02;2.95;;;;;;;13.24;67.69;99596.50;4989725;28;20524;-79
2024/01/04 11:01:02;;;;;;;13.60;2.10;;;;;;;13.39;68.08;99590.81;5009111;28;20030;-80
2024/01/04 11:03:30;;;;;;;14.93;2.22;;;;;;;13.42;67.78;99588.09;5009441;28;20445;-79
2024/01/04 11:06:01;;;;;;;14.80;1.75;;;;;;;13.50;67.50;99582.59;5009482;28;20030;-79
2024/01/04 11:08:27;;;;;;;16.20;2.35;;;;;;;13.61;67.63;99587.59;4975205;28;20045;-79
2024/01/04 11:10:55;;;;;;;17.37;3.30;;;;;;;13.69;67.50;99575.06;4991252;28;20531;-79
2024/01/04 11:13:21;;;;;;;12.98;3.15;;;;;;;13.78;67.20;99556.25;4988792;28;20061;-79
2024/01/04 11:15:53;;;;;;;16.15;3.90;;;;;;;13.88;66.17;99551.56;4988246;28;20078;-79
2024/01/04 11:18:51;;;;;;;22.05;4.63;;;;;;;13.99;65.49;99540.66;4990005;28;20150;-78
2024/01/04 11:21:58;;;;;;;14.63;2.43;;;;;;;14.05;64.81;99513.16;4987796;28;20022;-78
2024/01/04 11:24:52;;;;;;;12.90;1.70;;;;;;;14.19;65.48;99515.38;4990337;28;20086;-78
2024/01/04 11:27:19;;;;;;;17.48;2.47;;;;;;;14.31;64.54;99514.97;4992242;28;20084;-79
2024/01/04 11:29:48;;;;;;;12.60;1.52;;;;;;;14.33;64.02;99507.84;4993406;28;20026;-79
2024/01/04 11:32:15;;;;;;;16.00;2.33;;;;;;;14.39;63.62;99498.84;4994974;28;20042;-78
2024/01/04 11:34:41;;;;;;;12.57;1.40;;;;;;;14.48;63.25;99489.72;4993273;28;20049;-78
2024/01/04 11:37:08;;;;;;;18.15;3.13;;;;;;;14.53;63.11;99493.09;4975629;28;20232;-79
2024/01/04 11:39:34;;;;;;;14.07;2.10;;;;;;;14.55;63.33;99488.59;4992972;28;20034;-79
2024/01/04 11:41:59;;;;;;;16.27;1.50;;;;;;;14.64;62.74;99482.13;4992986;28;20544;-80
2024/01/04 11:44:35;;;;;;;13.17;1.67;;;;;;;14.56;61.78;99471.78;4992968;28;20034;-79